Time;durP1;ratioP1;P1;durP2;ratioP2;P2;SDS_P1;SDS_P2;PMS_P1;PMS_P2;Temp;Humidity;BMP_temperature;BMP_pressure;BME280_temperature;BME280_humidity;BME280_pressure;Samples;Min_cycle;Max_cycle;Signal;HPM_P1;HPM_P2
2022/09/01 00:00:27;;;;;;;;;;;;;;;16.42;57.74;102201.81;5049481;28;20368;-51
2022/09/01 00:02:53;;;;;;;;;;;;;;;16.36;57.75;102191.56;5051617;28;19960;-52
2022/09/01 00:05:18;;;;;;;;;;;;;;;16.27;57.90;102189.44;5051721;28;20078;-52
2022/09/01 00:07:43;;;;;;;;;;;;;;;16.23;58.19;102190.56;5054752;28;20472;-51
2022/09/01 00:10:09;;;;;;;;;;;;;;;16.18;58.20;102195.28;5050088;28;19994;-51
2022/09/01 00:12:35;;;;;;;;;;;;;;;16.14;58.25;102191.97;5052570;28;19960;-52
2022/09/01 00:15:00;;;;;;;;;;;;;;;16.10;58.29;102191.31;5049176;28;19921;-52
2022/09/01 00:17:26;;;;;;;;;;;;;;;16.07;58.38;102196.78;5051783;28;19929;-51
2022/09/01 00:19:51;;;;;;;;;;;;;;;16.02;58.45;102196.19;5051475;28;19923;-53
2022/09/01 00:22:17;;;;;;;;;;;;;;;16.01;58.49;102191.81;5051542;28;19931;-51
2022/09/01 00:24:42;;;;;;;;;;;;;;;16.01;58.61;102202.44;5052737;28;19943;-52
2022/09/01 00:27:07;;;;;;;;;;;;;;;16.00;58.69;102192.75;5051579;28;19928;-51
2022/09/01 00:29:33;;;;;;;;;;;;;;;15.96;58.70;102194.75;5047867;28;20005;-51
2022/09/01 00:31:58;;;;;;;;;;;;;;;15.93;58.69;102197.56;5051340;28;19982;-51
2022/09/01 00:34:23;;;;;;;;;;;;;;;15.91;58.82;102193.28;5057330;28;19928;-52
2022/09/01 00:36:49;;;;;;;;;;;;;;;15.90;58.82;102191.59;5055946;28;19928;-52
2022/09/01 00:39:14;;;;;;;;;;;;;;;15.86;58.84;102190.91;5054319;28;20402;-51
2022/09/01 00:41:43;;;;;;;;;;;;;;;15.80;58.93;102189.44;5053933;28;19921;-52
2022/09/01 00:44:11;;;;;;;;;;;;;;;15.81;58.98;102191.13;5051664;28;20380;-51
2022/09/01 00:46:38;;;;;;;;;;;;;;;15.87;58.97;102197.06;5055520;28;20972;-52
2022/09/01 00:49:06;;;;;;;;;;;;;;;15.92;58.89;102192.34;5052140;28;19928;-52
2022/09/01 00:51:32;;;;;;;;;;;;;;;15.95;58.88;102192.19;5054048;28;19931;-53
2022/09/01 00:53:59;;;;;;;;;;;;;;;15.98;58.77;102186.69;5027041;28;20579;-51
2022/09/01 00:56:25;;;;;;;;;;;;;;;16.01;58.77;102186.50;5055876;28;19951;-52
2022/09/01 00:58:52;;;;;;;;;;;;;;;16.05;58.73;102185.38;5053607;28;20434;-52
2022/09/01 01:01:17;;;;;;;;;;;;;;;16.09;58.55;102189.59;5056226;28;19916;-51
2022/09/01 01:03:46;;;;;;;;;;;;;;;16.09;58.45;102184.28;5054841;28;20786;-53
2022/09/01 01:06:12;;;;;;;;;;;;;;;16.10;58.52;102182.47;5055899;28;19917;-52
2022/09/01 01:08:40;;;;;;;;;;;;;;;16.10;58.53;102182.47;5061920;28;19924;-52
2022/09/01 01:11:06;;;;;;;;;;;;;;;16.08;58.44;102177.25;5054997;28;20027;-53
2022/09/01 01:13:34;;;;;;;;;;;;;;;16.07;58.55;102175.53;5055851;28;19925;-51
2022/09/01 01:16:00;;;;;;;;;;;;;;;16.06;58.54;102171.16;5058073;28;19924;-52
2022/09/01 01:18:26;;;;;;;;;;;;;;;16.05;58.64;102166.81;5054177;28;19932;-53
2022/09/01 01:23:50;;;;;;;;;;;;;;;16.01;58.73;102175.88;5057993;28;19931;-53
2022/09/01 01:26:15;;;;;;;;;;;;;;;16.01;58.62;102170.56;5055725;28;20747;-52
2022/09/01 01:28:41;;;;;;;;;;;;;;;16.02;58.68;102176.75;5054423;28;19924;-53
2022/09/01 01:31:12;;;;;;;;;;;;;;;15.99;58.62;102172.47;5051172;28;20211;-52
2022/09/01 01:33:43;;;;;;;;;;;;;;;15.98;58.68;102176.06;5055061;28;19925;-52
2022/09/01 01:36:14;;;;;;;;;;;;;;;15.96;58.67;102172.63;5051511;28;20053;-52
2022/09/01 01:38:42;;;;;;;;;;;;;;;15.95;58.82;102174.44;5045554;28;20038;-51
2022/09/01 01:41:08;;;;;;;;;;;;;;;15.93;58.72;102172.84;5053559;28;19930;-51
2022/09/01 01:43:33;;;;;;;;;;;;;;;15.89;58.80;102174.78;5053380;28;19929;-51
2022/09/01 01:46:01;;;;;;;;;;;;;;;15.84;58.82;102169.72;5051846;28;20298;-51
2022/09/01 01:48:27;;;;;;;;;;;;;;;15.78;58.86;102172.75;5052989;28;19929;-51
2022/09/01 01:50:53;;;;;;;;;;;;;;;15.74;59.07;102171.19;5053517;28;19920;-50
2022/09/01 01:53:19;;;;;;;;;;;;;;;15.72;58.98;102173.06;5051139;28;19932;-52
2022/09/01 01:55:47;;;;;;;;;;;;;;;15.70;59.06;102167.00;5060319;28;19932;-51
2022/09/01 01:58:14;;;;;;;;;;;;;;;15.69;59.14;102165.28;5050889;28;19928;-51
2022/09/01 02:00:45;;;;;;;;;;;;;;;15.67;59.14;102162.72;5050687;28;19935;-51
2022/09/01 02:03:17;;;;;;;;;;;;;;;15.66;59.10;102168.09;5054505;28;20557;-52
2022/09/01 02:05:43;;;;;;;;;;;;;;;15.62;59.10;102161.28;5051836;28;20015;-51
2022/09/01 02:08:09;;;;;;;;;;;;;;;15.60;59.11;102160.50;5051362;28;19931;-51
2022/09/01 02:10:39;;;;;;;;;;;;;;;15.57;59.20;102161.56;5052381;28;19982;-52
2022/09/01 02:13:06;;;;;;;;;;;;;;;15.58;59.15;102157.94;5050488;28;19935;-51
2022/09/01 02:15:42;;;;;;;;;;;;;;;15.56;59.12;102159.84;5051709;28;19987;-52
2022/09/01 02:18:07;;;;;;;;;;;;;;;15.52;59.05;102161.78;5050174;28;19931;-52
2022/09/01 02:20:33;;;;;;;;;;;;;;;15.47;59.14;102163.84;5048009;28;19935;-51
2022/09/01 02:23:09;;;;;;;;;;;;;;;15.44;59.17;102161.38;5050902;28;20347;-51
2022/09/01 02:25:35;;;;;;;;;;;;;;;15.42;59.26;102168.56;5051124;28;19924;-52
2022/09/01 02:28:02;;;;;;;;;;;;;;;15.40;59.26;102167.78;5068093;28;19931;-52
2022/09/01 02:30:31;;;;;;;;;;;;;;;15.36;59.31;102166.22;5050737;28;20026;-51
2022/09/01 02:32:58;;;;;;;;;;;;;;;15.34;59.45;102160.19;5050890;28;20343;-52
2022/09/01 02:35:27;;;;;;;;;;;;;;;15.32;59.43;102162.91;5056713;28;19917;-53
2022/09/01 02:37:55;;;;;;;;;;;;;;;15.29;59.43;102157.75;5051842;28;19920;-50
2022/09/01 02:40:20;;;;;;;;;;;;;;;15.27;59.43;102153.50;5051835;28;19921;-51
2022/09/01 02:42:46;;;;;;;;;;;;;;;15.24;59.45;102155.38;5056347;28;19935;-52
2022/09/01 02:45:15;;;;;;;;;;;;;;;15.20;59.48;102153.81;5051362;28;19924;-51
2022/09/01 02:47:42;;;;;;;;;;;;;;;15.18;59.49;102155.72;5051427;28;19939;-51
2022/09/01 02:50:12;;;;;;;;;;;;;;;15.14;59.58;102154.16;5051480;28;20798;-51
2022/09/01 02:52:39;;;;;;;;;;;;;;;15.13;59.65;102157.75;5050211;28;19928;-52
2022/09/01 02:55:05;;;;;;;;;;;;;;;15.12;59.63;102150.75;5051728;28;20280;-51
2022/09/01 02:57:33;;;;;;;;;;;;;;;15.12;59.51;102155.19;5056595;28;20388;-52
2022/09/01 02:59:58;;;;;;;;;;;;;;;15.09;59.56;102151.78;5050971;28;19928;-52
2022/09/01 03:02:27;;;;;;;;;;;;;;;15.06;59.70;102151.06;5052014;28;19923;-51
2022/09/01 03:04:54;;;;;;;;;;;;;;;15.05;59.61;102157.34;5050580;28;19951;-50
2022/09/01 03:07:22;;;;;;;;;;;;;;;15.03;59.69;102160.06;5052003;28;19986;-52
2022/09/01 03:09:48;;;;;;;;;;;;;;;15.03;59.59;102164.50;5051004;28;19924;-52
2022/09/01 03:12:13;;;;;;;;;;;;;;;15.02;59.71;102160.97;5054051;28;19924;-51
2022/09/01 03:14:38;;;;;;;;;;;;;;;15.03;59.65;102161.84;5053072;28;19932;-51
2022/09/01 03:17:04;;;;;;;;;;;;;;;15.03;59.69;102157.41;5050260;28;19925;-51
2022/09/01 03:19:33;;;;;;;;;;;;;;;15.00;59.74;102162.03;5050620;28;19929;-52
2022/09/01 03:21:59;;;;;;;;;;;;;;;14.98;59.77;102162.09;5051758;28;19974;-51
2022/09/01 03:24:24;;;;;;;;;;;;;;;14.98;59.83;102166.53;5054315;28;19933;-51
2022/09/01 03:26:50;;;;;;;;;;;;;;;14.98;59.78;102153.28;5049599;28;20332;-51
2022/09/01 03:29:15;;;;;;;;;;;;;;;14.97;59.68;102156.88;5058889;28;19969;-51
2022/09/01 03:31:41;;;;;;;;;;;;;;;14.94;59.81;102147.31;5051153;28;19920;-52
2022/09/01 03:34:09;;;;;;;;;;;;;;;14.96;59.84;102149.88;5052714;28;19977;-52
2022/09/01 03:36:35;;;;;;;;;;;;;;;14.93;59.75;102150.91;5034627;28;21586;-51
2022/09/01 03:39:00;;;;;;;;;;;;;;;14.91;59.80;102153.59;5050164;28;20300;-51
2022/09/01 03:41:28;;;;;;;;;;;;;;;14.90;59.81;102151.88;5047625;28;19924;-52
2022/09/01 03:43:59;;;;;;;;;;;;;;;14.86;59.96;102154.78;5056084;28;19928;-53
2022/09/01 03:46:25;;;;;;;;;;;;;;;14.84;59.88;102149.59;5048263;28;19925;-51
2022/09/01 03:48:53;;;;;;;;;;;;;;;14.83;59.97;102155.81;5045390;28;19925;-51
2022/09/01 03:51:21;;;;;;;;;;;;;;;14.81;60.10;102155.03;5048526;28;19924;-51
2022/09/01 03:53:47;;;;;;;;;;;;;;;14.81;60.02;102152.41;5050580;28;19935;-51
2022/09/01 03:56:14;;;;;;;;;;;;;;;14.83;60.07;102161.13;5051172;28;19921;-51
2022/09/01 03:58:40;;;;;;;;;;;;;;;14.83;59.96;102153.19;5052709;28;19924;-51
2022/09/01 04:01:06;;;;;;;;;;;;;;;14.81;59.93;102155.03;5053511;28;19916;-51
2022/09/01 04:03:33;;;;;;;;;;;;;;;14.78;59.98;102157.84;5050098;28;20349;-51
2022/09/01 04:05:59;;;;;;;;;;;;;;;14.77;60.14;102158.78;5052714;28;20216;-52
2022/09/01 04:08:30;;;;;;;;;;;;;;;14.74;59.97;102151.88;5050781;28;21458;-51
2022/09/01 04:10:57;;;;;;;;;;;;;;;14.70;60.03;102155.59;5050031;28;20015;-52
2022/09/01 04:13:30;;;;;;;;;;;;;;;14.66;60.07;102153.19;5048239;28;19947;-53
2022/09/01 04:15:56;;;;;;;;;;;;;;;14.62;59.96;102148.03;5056592;28;19924;-53
2022/09/01 04:18:22;;;;;;;;;;;;;;;14.61;60.18;102150.78;5058045;28;19924;-52
2022/09/01 04:20:49;;;;;;;;;;;;;;;14.61;60.09;102145.47;5052978;28;20415;-51
2022/09/01 04:23:25;;;;;;;;;;;;;;;14.59;60.26;102153.50;5051115;28;20020;-52
2022/09/01 04:25:52;;;;;;;;;;;;;;;14.58;60.06;102146.50;5056175;28;19955;-52
2022/09/01 04:28:25;;;;;;;;;;;;;;;14.57;60.26;102149.22;5050920;28;19923;-55
2022/09/01 04:30:55;;;;;;;;;;;;;;;14.55;60.13;102149.31;5057167;28;19917;-51
2022/09/01 04:33:21;;;;;;;;;;;;;;;14.56;60.19;102142.19;5054522;28;20367;-52
2022/09/01 04:35:48;;;;;;;;;;;;;;;14.55;60.19;102140.47;5060840;28;19925;-51
2022/09/01 04:38:14;;;;;;;;;;;;;;;14.53;60.38;102148.53;5051705;28;20874;-51
2022/09/01 04:40:40;;;;;;;;;;;;;;;14.54;60.40;102149.38;5033157;28;19928;-52
2022/09/01 04:43:06;;;;;;;;;;;;;;;14.54;60.36;102155.53;5050483;28;19980;-51
2022/09/01 04:45:34;;;;;;;;;;;;;;;14.53;60.33;102155.59;5060130;28;20407;-52
2022/09/01 04:47:59;;;;;;;;;;;;;;;14.50;60.43;102156.63;5057419;28;20308;-52
2022/09/01 04:50:29;;;;;;;;;;;;;;;14.50;60.45;102148.69;5058139;28;19924;-51
2022/09/01 04:52:56;;;;;;;;;;;;;;;14.51;60.43;102155.69;5059299;28;19932;-51
2022/09/01 04:55:23;;;;;;;;;;;;;;;14.52;60.37;102152.09;5052313;28;19920;-52
2022/09/01 04:57:48;;;;;;;;;;;;;;;14.55;60.48;102151.09;5054340;28;20636;-51
2022/09/01 05:00:21;;;;;;;;;;;;;;;14.57;60.56;102150.09;5056307;28;19928;-51
2022/09/01 05:02:52;;;;;;;;;;;;;;;14.60;60.54;102149.06;5052353;28;20244;-52
2022/09/01 05:05:21;;;;;;;;;;;;;;;14.61;60.57;102148.13;5057152;28;20320;-53
2022/09/01 05:07:51;;;;;;;;;;;;;;;14.62;60.72;102152.50;5060422;28;19943;-51
2022/09/01 05:10:18;;;;;;;;;;;;;;;14.61;60.69;102154.25;5061025;28;19997;-53
2022/09/01 05:12:44;;;;;;;;;;;;;;;14.60;60.91;102149.91;5063529;28;19969;-51
2022/09/01 05:15:11;;;;;;;;;;;;;;;14.60;60.91;102144.59;5060363;28;19950;-51
2022/09/01 05:17:37;;;;;;;;;;;;;;;14.59;61.11;102145.56;5062368;28;20422;-53
2022/09/01 05:20:04;;;;;;;;;;;;;;;14.57;61.31;102139.50;5060939;28;20096;-51
2022/09/01 05:22:30;;;;;;;;;;;;;;;14.57;61.43;102144.78;5059133;28;19990;-51
2022/09/01 05:25:01;;;;;;;;;;;;;;;14.57;61.66;102142.13;5062162;28;20392;-52
2022/09/01 05:27:28;;;;;;;;;;;;;;;14.60;61.53;102149.06;5062291;28;19962;-51
2022/09/01 05:29:53;;;;;;;;;;;;;;;14.60;61.64;102147.25;5061049;28;20045;-51
2022/09/01 05:32:20;;;;;;;;;;;;;;;14.61;61.80;102146.31;5061969;28;19971;-52
2022/09/01 05:34:46;;;;;;;;;;;;;;;14.60;61.89;102155.19;5061911;28;19928;-52
2022/09/01 05:37:11;;;;;;;;;;;;;;;14.59;62.12;102148.22;5062022;28;19927;-51
2022/09/01 05:39:37;;;;;;;;;;;;;;;14.57;62.16;102155.38;5062012;28;19921;-52
2022/09/01 05:42:07;;;;;;;;;;;;;;;14.56;62.37;102158.97;5061546;28;20418;-51
2022/09/01 05:44:32;;;;;;;;;;;;;;;14.54;62.45;102155.53;5061232;28;19982;-51
2022/09/01 05:46:58;;;;;;;;;;;;;;;14.54;62.56;102160.84;5059278;28;19929;-52
2022/09/01 05:49:24;;;;;;;;;;;;;;;14.54;62.64;102163.47;5061460;28;20476;-51
2022/09/01 05:51:57;;;;;;;;;;;;;;;14.60;62.62;102157.00;5059745;28;19946;-52
2022/09/01 05:54:26;;;;;;;;;;;;;;;14.62;62.68;102158.63;5058975;28;19925;-52
2022/09/01 05:56:52;;;;;;;;;;;;;;;14.66;62.78;102158.47;5057342;28;19931;-51
2022/09/01 05:59:19;;;;;;;;;;;;;;;14.72;62.63;102155.53;5060505;28;19924;-52
2022/09/01 06:01:46;;;;;;;;;;;;;;;14.81;62.57;102156.84;5060812;28;20376;-52
2022/09/01 06:04:12;;;;;;;;;;;;;;;14.83;62.45;102158.47;5063064;28;20005;-51
2022/09/01 06:06:45;;;;;;;;;;;;;;;14.83;62.65;102150.53;5058488;28;19950;-51
2022/09/01 06:09:12;;;;;;;;;;;;;;;14.87;62.73;102157.38;5059165;28;19920;-50
2022/09/01 06:11:38;;;;;;;;;;;;;;;14.94;62.68;102163.22;5045604;28;19929;-50
2022/09/01 06:14:04;;;;;;;;;;;;;;;15.02;62.69;102154.84;5052796;28;19927;-51
2022/09/01 06:16:30;;;;;;;;;;;;;;;15.09;62.53;102156.19;5058071;28;19924;-51
2022/09/01 06:18:56;;;;;;;;;;;;;;;15.15;62.56;102155.00;5061416;28;19971;-51
2022/09/01 06:21:23;;;;;;;;;;;;;;;15.19;62.57;102162.75;5060107;28;20296;-51
2022/09/01 06:23:50;;;;;;;;;;;;;;;15.23;62.50;102158.97;5058237;28;19942;-51
2022/09/01 06:26:19;;;;;;;;;;;;;;;15.28;62.48;102160.50;5060480;28;20423;-51
2022/09/01 06:28:45;;;;;;;;;;;;;;;15.34;62.44;102160.19;5060772;28;19924;-51
2022/09/01 06:31:11;;;;;;;;;;;;;;;15.38;62.46;102162.56;5061849;28;19916;-51
2022/09/01 06:33:37;;;;;;;;;;;;;;;15.43;62.49;102161.47;5061050;28;19932;-50
2022/09/01 06:36:04;;;;;;;;;;;;;;;15.47;62.21;102166.50;5060434;28;19974;-50
2022/09/01 06:38:29;;;;;;;;;;;;;;;15.50;62.42;102166.31;5058639;28;19924;-52
2022/09/01 06:41:03;;;;;;;;;;;;;;;15.57;62.40;102163.31;5062589;28;19931;-50
2022/09/01 06:43:29;;;;;;;;;;;;;;;15.62;62.29;102171.91;5060662;28;20002;-50
2022/09/01 06:45:55;;;;;;;;;;;;;;;15.67;62.30;102177.78;5058173;28;19939;-51
2022/09/01 06:48:22;;;;;;;;;;;;;;;15.72;62.27;102178.38;5063522;28;19916;-50
2022/09/01 06:50:47;;;;;;;;;;;;;;;15.77;62.23;102178.13;5061261;28;19951;-51
2022/09/01 06:53:17;;;;;;;;;;;;;;;15.81;62.28;102183.16;5056086;28;20390;-51
2022/09/01 06:55:42;;;;;;;;;;;;;;;15.84;62.13;102177.69;5058240;28;20015;-51
2022/09/01 06:58:12;;;;;;;;;;;;;;;15.90;62.24;102170.34;5044490;28;20007;-51
2022/09/01 07:00:40;;;;;;;;;;;;;;;15.95;62.19;102173.59;5059266;28;19917;-51
2022/09/01 07:03:08;;;;;;;;;;;;;;;16.00;62.20;102182.13;5059482;28;19920;-51
2022/09/01 07:05:37;;;;;;;;;;;;;;;16.03;62.16;102179.31;5060908;28;22136;-51
2022/09/01 07:08:06;;;;;;;;;;;;;;;16.07;62.20;102175.53;5061587;28;20382;-51
2022/09/01 07:10:32;;;;;;;;;;;;;;;16.13;62.18;102177.81;5059745;28;19920;-52
2022/09/01 07:13:00;;;;;;;;;;;;;;;16.18;62.16;102177.56;5062376;28;19935;-52
2022/09/01 07:15:26;;;;;;;;;;;;;;;16.24;62.26;102177.19;5066066;28;19974;-51
2022/09/01 07:17:54;;;;;;;;;;;;;;;16.30;62.06;102183.94;5063051;28;20459;-52
2022/09/01 07:20:21;;;;;;;;;;;;;;;16.35;62.16;102187.19;5062154;28;19924;-51
2022/09/01 07:22:47;;;;;;;;;;;;;;;16.41;62.16;102183.31;5065964;28;19916;-53
2022/09/01 07:25:12;;;;;;;;;;;;;;;16.44;62.05;102178.66;5066346;28;19927;-52
2022/09/01 07:27:49;;;;;;;;;;;;;;;16.45;62.13;102180.38;5064876;28;19961;-52
2022/09/01 07:30:18;;;;;;;;;;;;;;;16.48;62.08;102173.16;5063861;28;19928;-52
2022/09/01 07:32:45;;;;;;;;;;;;;;;16.50;62.07;102174.78;5060842;28;19924;-51
2022/09/01 07:35:14;;;;;;;;;;;;;;;16.52;61.97;102174.69;5062485;28;20368;-53
2022/09/01 07:37:40;;;;;;;;;;;;;;;16.55;61.95;102178.03;5063731;28;19935;-53
2022/09/01 07:40:07;;;;;;;;;;;;;;;16.59;61.89;102184.00;5063029;28;19921;-54
2022/09/01 07:42:32;;;;;;;;;;;;;;;16.64;61.97;102184.59;5063586;28;20384;-52
2022/09/01 07:44:58;;;;;;;;;;;;;;;16.68;61.86;102186.13;5062555;28;19920;-51
2022/09/01 07:47:24;;;;;;;;;;;;;;;16.74;61.81;102185.72;5065235;28;19951;-53
2022/09/01 07:49:49;;;;;;;;;;;;;;;16.79;61.71;102181.94;5064311;28;19967;-51
2022/09/01 07:52:14;;;;;;;;;;;;;;;16.83;61.69;102189.63;5063159;28;20331;-52
2022/09/01 07:54:41;;;;;;;;;;;;;;;16.90;61.51;102179.47;5064121;28;20461;-51
2022/09/01 07:57:06;;;;;;;;;;;;;;;16.94;61.37;102191.63;5065068;28;19928;-51
2022/09/01 07:59:34;;;;;;;;;;;;;;;17.00;61.46;102185.97;5061632;28;19935;-51
2022/09/01 08:02:00;;;;;;;;;;;;;;;17.06;61.35;102190.06;5060541;28;20133;-51
2022/09/01 08:04:26;;;;;;;;;;;;;;;17.10;61.07;102193.38;5061452;28;19951;-51
2022/09/01 08:06:52;;;;;;;;;;;;;;;17.17;60.94;102194.66;5063471;28;20376;-52
2022/09/01 08:09:17;;;;;;;;;;;;;;;17.23;60.96;102188.97;5065396;28;19925;-52
2022/09/01 08:11:43;;;;;;;;;;;;;;;17.29;60.61;102191.25;5061314;28;19928;-52
2022/09/01 08:14:09;;;;;;;;;;;;;;;17.39;60.45;102196.00;5060846;28;19935;-52
2022/09/01 08:16:34;;;;;;;;;;;;;;;17.47;60.07;102191.06;5047064;28;20038;-52
2022/09/01 08:18:59;;;;;;;;;;;;;;;17.54;59.94;102188.84;5062969;28;20473;-52
2022/09/01 08:21:25;;;;;;;;;;;;;;;17.63;59.73;102193.56;5055730;28;19924;-51
2022/09/01 08:23:51;;;;;;;;;;;;;;;17.71;59.67;102190.41;5062061;28;19913;-53
2022/09/01 08:26:17;;;;;;;;;;;;;;;17.76;59.43;102189.13;5061475;28;19924;-53
2022/09/01 08:28:43;;;;;;;;;;;;;;;17.83;59.22;102200.25;5065058;28;20299;-51
2022/09/01 08:31:09;;;;;;;;;;;;;;;17.90;58.86;102201.56;5062493;28;19935;-52
2022/09/01 08:33:35;;;;;;;;;;;;;;;17.96;58.86;102201.13;5062177;28;19963;-51
2022/09/01 08:36:00;;;;;;;;;;;;;;;18.02;58.78;102194.59;5062007;28;20043;-50
2022/09/01 08:38:26;;;;;;;;;;;;;;;18.11;58.39;102195.78;5060919;28;20418;-53
2022/09/01 08:40:54;;;;;;;;;;;;;;;18.17;58.08;102182.06;5064611;28;20408;-51
2022/09/01 08:43:19;;;;;;;;;;;;;;;18.24;58.19;102187.81;5061291;28;19917;-53
2022/09/01 08:45:52;;;;;;;;;;;;;;;18.32;57.93;102188.16;5063574;28;20273;-53
2022/09/01 08:48:32;;;;;;;;;;;;;;;18.39;57.72;102184.13;5063098;28;19947;-53
2022/09/01 08:51:24;;;;;;;;;;;;;;;18.47;57.63;102196.06;5060815;28;19973;-53
2022/09/01 08:53:56;;;;;;;;;;;;;;;18.52;56.95;102186.81;5029911;28;19935;-53
2022/09/01 08:56:22;;;;;;;;;;;;;;;18.61;56.98;102184.47;5063895;28;19963;-53
2022/09/01 08:58:47;;;;;;;;;;;;;;;18.67;56.59;102186.72;5062988;28;19924;-51
2022/09/01 09:01:20;;;;;;;;;;;;;;;18.74;56.33;102182.63;5062597;28;20363;-52
2022/09/01 09:03:45;;;;;;;;;;;;;;;18.81;56.30;102185.72;5042415;28;19928;-51
2022/09/01 09:06:13;;;;;;;;;;;;;;;18.86;55.75;102195.09;5060188;28;19916;-52
2022/09/01 09:08:51;;;;;;;;;;;;;;;18.87;55.28;102191.47;5061351;28;19920;-51
2022/09/01 09:11:33;;;;;;;;;;;;;;;18.88;55.30;102189.69;5060900;28;19967;-51
2022/09/01 09:13:58;;;;;;;;;;;;;;;18.89;55.05;102189.56;5062333;28;20303;-52
2022/09/01 09:16:44;;;;;;;;;;;;;;;18.94;54.59;102185.72;5063387;28;19916;-52
2022/09/01 09:19:19;;;;;;;;;;;;;;;19.00;54.69;102193.31;5064574;28;19920;-51
2022/09/01 09:21:46;;;;;;;;;;;;;;;19.07;54.57;102185.72;5061260;28;19916;-51
2022/09/01 09:24:20;;;;;;;;;;;;;;;19.14;54.50;102187.84;5061779;28;19969;-51
2022/09/01 09:26:49;;;;;;;;;;;;;;;19.23;54.62;102180.16;5062353;28;19960;-51
2022/09/01 09:29:15;;;;;;;;;;;;;;;19.31;54.34;102189.31;5064490;28;19921;-52
2022/09/01 09:31:51;;;;;;;;;;;;;;;19.38;54.16;102187.06;5047664;28;19951;-51
2022/09/01 09:34:34;;;;;;;;;;;;;;;19.46;53.71;102187.34;5062022;28;19925;-51
2022/09/01 09:37:01;;;;;;;;;;;;;;;19.54;53.77;102180.59;5062088;28;19921;-52
2022/09/01 09:39:27;;;;;;;;;;;;;;;19.61;53.33;102181.84;5058848;28;19920;-51
2022/09/01 09:42:08;;;;;;;;;;;;;;;19.66;53.81;102185.03;5060057;28;20423;-51
2022/09/01 09:44:40;;;;;;;;;;;;;;;19.70;53.50;102178.50;5060980;28;19957;-51
2022/09/01 09:47:05;;;;;;;;;;;;;;;19.74;53.31;102184.47;5064571;28;19912;-52
2022/09/01 09:49:31;;;;;;;;;;;;;;;19.76;53.44;102178.03;5061963;28;19916;-51
2022/09/01 09:51:57;;;;;;;;;;;;;;;19.78;53.08;102176.13;5062621;28;19916;-53
2022/09/01 09:54:27;;;;;;;;;;;;;;;19.83;53.10;102172.25;5060540;28;20461;-53
2022/09/01 09:57:01;;;;;;;;;;;;;;;19.86;53.15;102177.38;5063054;28;19920;-52
2022/09/01 09:59:32;;;;;;;;;;;;;;;19.88;52.69;102178.16;5061324;28;19921;-53
2022/09/01 10:02:13;;;;;;;;;;;;;;;19.88;53.27;102180.81;5063690;28;20285;-53
2022/09/01 10:04:39;;;;;;;;;;;;;;;19.87;53.26;102173.78;5060485;28;19928;-53
2022/09/01 10:07:23;;;;;;;;;;;;;;;19.87;53.45;102173.78;5060805;28;19973;-51
2022/09/01 10:09:49;;;;;;;;;;;;;;;19.85;53.14;102175.66;5063164;28;19919;-53
2022/09/01 10:12:14;;;;;;;;;;;;;;;19.83;53.46;102177.59;5060731;28;19924;-51
2022/09/01 10:15:03;;;;;;;;;;;;;;;19.82;53.11;102179.41;5059647;28;20225;-51
2022/09/01 10:17:33;;;;;;;;;;;;;;;19.78;52.82;102181.44;5059934;28;19952;-52
2022/09/01 10:20:07;;;;;;;;;;;;;;;19.72;53.33;102176.59;5065261;28;19916;-51
2022/09/01 10:22:33;;;;;;;;;;;;;;;19.68;53.11;102180.44;5061301;28;19924;-52
2022/09/01 10:24:59;;;;;;;;;;;;;;;19.64;53.00;102178.94;5060684;28;20599;-52
2022/09/01 10:27:27;;;;;;;;;;;;;;;19.55;53.24;102175.13;5060437;28;19916;-51
2022/09/01 10:30:00;;;;;;;;;;;;;;;19.54;53.51;102172.59;5063932;28;19913;-51
2022/09/01 10:32:33;;;;;;;;;;;;;;;19.57;53.23;102167.03;5059493;28;19920;-51
2022/09/01 10:34:58;;;;;;;;;;;;;;;19.63;53.56;102174.56;5062888;28;20003;-51
2022/09/01 10:37:24;;;;;;;;;;;;;;;19.67;52.85;102180.53;5063176;28;21118;-52
2022/09/01 10:40:08;;;;;;;;;;;;;;;19.68;52.93;102182.25;5062891;28;19963;-51
2022/09/01 10:42:34;;;;;;;;;;;;;;;19.68;52.86;102179.56;5060404;28;20288;-51
2022/09/01 10:45:02;;;;;;;;;;;;;;;19.70;52.42;102177.66;5063189;28;20862;-51
2022/09/01 10:47:32;;;;;;;;;;;;;;;19.67;52.65;102176.06;5046640;28;20394;-52
2022/09/01 10:50:03;;;;;;;;;;;;;;;19.70;52.32;102180.31;5060077;28;19916;-52
2022/09/01 10:52:40;;;;;;;;;;;;;;;19.73;52.67;102172.94;5056284;28;19924;-52
2022/09/01 10:55:08;;;;;;;;;;;;;;;19.78;52.34;102185.97;5060123;28;19935;-52
2022/09/01 10:57:41;;;;;;;;;;;;;;;19.78;51.90;102180.63;5060899;28;20858;-51
2022/09/01 11:00:21;;;;;;;;;;;;;;;19.76;52.17;102178.03;5060941;28;19920;-51
2022/09/01 11:03:05;;;;;;;;;;;;;;;19.76;52.00;102180.72;5061586;28;19976;-52
2022/09/01 11:05:49;;;;;;;;;;;;;;;19.79;52.23;102187.66;5061389;28;20307;-51
2022/09/01 11:08:21;;;;;;;;;;;;;;;19.80;52.12;102182.19;5060186;28;20344;-51
2022/09/01 11:10:51;;;;;;;;;;;;;;;19.83;52.28;102181.09;5060204;28;20292;-51
2022/09/01 11:13:31;;;;;;;;;;;;;;;19.86;52.20;102185.38;5060240;28;19962;-51
2022/09/01 11:16:16;;;;;;;;;;;;;;;19.88;51.81;102176.31;5060102;28;19924;-51
2022/09/01 11:18:44;;;;;;;;;;;;;;;19.90;51.95;102176.19;5060992;28;19943;-51
2022/09/01 11:21:15;;;;;;;;;;;;;;;19.91;52.09;102180.56;5062545;28;19921;-52
2022/09/01 11:23:40;;;;;;;;;;;;;;;19.93;51.78;102173.28;5058907;28;20411;-51
2022/09/01 11:26:24;;;;;;;;;;;;;;;19.97;52.01;102173.91;5059011;28;19924;-51
2022/09/01 11:28:50;;;;;;;;;;;;;;;20.00;51.94;102173.69;5058918;28;20457;-52
2022/09/01 11:31:15;;;;;;;;;;;;;;;20.02;51.78;102161.94;5040967;28;20467;-51
2022/09/01 11:33:56;;;;;;;;;;;;;;;20.03;51.92;102168.09;5059410;28;19975;-52
2022/09/01 11:36:27;;;;;;;;;;;;;;;20.05;51.56;102172.34;5060713;28;19969;-51
2022/09/01 11:39:08;;;;;;;;;;;;;;;20.06;51.90;102173.22;5054951;28;19960;-51
2022/09/01 11:41:40;;;;;;;;;;;;;;;20.07;51.61;102174.94;5058282;28;20014;-52
2022/09/01 11:44:14;;;;;;;;;;;;;;;20.10;51.63;102172.88;5055279;28;20031;-52
2022/09/01 11:46:44;;;;;;;;;;;;;;;20.13;52.04;102170.94;5056421;28;19928;-52
2022/09/01 11:49:29;;;;;;;;;;;;;;;20.14;51.58;102178.81;5058356;28;20015;-52
2022/09/01 11:51:56;;;;;;;;;;;;;;;20.17;51.75;102169.75;5058801;28;19916;-52
2022/09/01 11:54:22;;;;;;;;;;;;;;;20.21;51.58;102177.41;5060527;28;19935;-53
2022/09/01 11:56:47;;;;;;;;;;;;;;;20.22;51.83;102167.56;5059502;28;19920;-52
2022/09/01 11:59:12;;;;;;;;;;;;;;;20.26;51.63;102171.72;5045931;28;19986;-51
2022/09/01 12:01:39;;;;;;;;;;;;;;;20.30;51.75;102167.84;5060625;28;20396;-51
2022/09/01 12:04:18;;;;;;;;;;;;;;;20.34;51.50;102172.00;5064563;28;19920;-52
2022/09/01 12:06:55;;;;;;;;;;;;;;;20.39;51.42;102169.78;5068216;28;19924;-52
2022/09/01 12:09:21;;;;;;;;;;;;;;;20.46;51.64;102166.66;5073592;28;19932;-51
2022/09/01 12:11:52;;;;;;;;;;;;;;;20.51;51.24;102164.44;5070243;28;20035;-52
2022/09/01 12:14:20;;;;;;;;;;;;;;;20.56;51.42;102154.25;5069619;28;19983;-51
2022/09/01 12:16:54;;;;;;;;;;;;;;;20.61;51.05;102162.78;5065838;28;19956;-51
2022/09/01 12:19:23;;;;;;;;;;;;;;;20.64;51.10;102164.34;5063449;28;19967;-52
2022/09/01 12:21:57;;;;;;;;;;;;;;;20.67;51.10;102162.28;5067358;28;19916;-53
2022/09/01 12:24:23;;;;;;;;;;;;;;;20.69;51.16;102157.66;5066670;28;20403;-53
2022/09/01 12:26:50;;;;;;;;;;;;;;;20.71;51.11;102163.75;5064092;28;19921;-52
2022/09/01 12:29:16;;;;;;;;;;;;;;;20.74;51.09;102161.81;5067692;28;19956;-52
2022/09/01 12:31:42;;;;;;;;;;;;;;;20.76;50.70;102154.56;5063526;28;19982;-52
2022/09/01 12:34:28;;;;;;;;;;;;;;;20.75;50.62;102151.00;5064242;28;19928;-52
2022/09/01 12:37:02;;;;;;;;;;;;;;;20.73;50.94;102158.28;5064563;28;19920;-52
2022/09/01 12:39:32;;;;;;;;;;;;;;;20.72;50.48;102153.94;5062479;28;20012;-51
2022/09/01 12:42:03;;;;;;;;;;;;;;;20.76;50.80;102143.84;5061227;28;20015;-54
2022/09/01 12:44:30;;;;;;;;;;;;;;;20.83;50.33;102143.25;5062060;28;20858;-52